createdAt,value
2023-02-19T00:02:56.038Z,4.28
2023-02-19T00:06:03.352Z,4.22
2023-02-19T00:12:21.056Z,4.05
2023-02-19T00:15:22.597Z,4.40
2023-02-19T00:18:24.276Z,4.28
2023-02-19T00:21:26.626Z,4.72
2023-02-19T00:24:29.114Z,4.20
2023-02-19T00:30:46.202Z,4.72
2023-02-19T00:34:02.316Z,4.15
2023-02-19T00:37:04.190Z,4.10
2023-02-19T00:40:11.871Z,4.22
2023-02-19T00:43:17.082Z,4.00
2023-02-19T00:46:35.505Z,4.55
2023-02-19T00:49:37.449Z,4.28
2023-02-19T00:52:39.366Z,3.88
2023-02-19T00:55:40.893Z,4.55
2023-02-19T00:58:42.463Z,4.40
2023-02-19T01:01:45.123Z,4.00
2023-02-19T01:04:46.823Z,4.00
2023-02-19T01:11:20.382Z,4.30
2023-02-19T01:14:24.273Z,4.40
2023-02-19T01:20:43.908Z,4.63
2023-02-19T01:23:45.482Z,4.72
2023-02-19T01:26:49.264Z,5.03
2023-02-19T01:29:50.912Z,4.75
2023-02-19T01:32:54.229Z,4.93
2023-02-19T01:39:12.325Z,4.50
2023-02-19T01:42:16.998Z,3.80
2023-02-19T01:45:31.078Z,4.85
2023-02-19T01:48:57.254Z,3.83
2023-02-19T01:52:00.827Z,4.05
2023-02-19T01:55:12.717Z,4.38
2023-02-19T01:58:15.739Z,4.30
2023-02-19T02:01:17.339Z,4.18
2023-02-19T02:04:19.173Z,4.35
2023-02-19T02:07:44.906Z,4.40
2023-02-19T02:10:46.517Z,3.95
2023-02-19T02:13:49.139Z,3.70
2023-02-19T02:17:04.373Z,4.00
2023-02-19T02:20:11.910Z,4.05
2023-02-19T02:23:16.054Z,4.40
2023-02-19T02:26:46.057Z,3.95
2023-02-19T02:33:50.257Z,4.10
2023-02-19T02:36:55.701Z,4.15
2023-02-19T02:40:02.823Z,4.50
2023-02-19T02:43:09.438Z,4.85
2023-02-19T02:46:12.847Z,4.60
2023-02-19T02:49:21.354Z,4.60
2023-02-19T02:52:44.775Z,5.05
2023-02-19T02:55:51.785Z,4.00
2023-02-19T02:58:59.048Z,4.22
2023-02-19T03:02:10.884Z,4.38
2023-02-19T03:05:44.193Z,4.55
2023-02-19T03:09:04.317Z,4.38
2023-02-19T03:12:35.061Z,4.30
2023-02-19T03:16:02.669Z,4.20
2023-02-19T03:19:27.890Z,5.28
2023-02-19T03:22:36.355Z,4.50
2023-02-19T03:26:01.132Z,4.38
2023-02-19T03:29:26.154Z,4.72
2023-02-19T03:32:53.903Z,4.45
2023-02-19T03:36:44.173Z,4.53
2023-02-19T03:39:48.194Z,4.45
2023-02-19T03:43:07.837Z,4.45
2023-02-19T03:46:32.051Z,4.25
2023-02-19T03:49:58.514Z,4.35
2023-02-19T03:53:19.164Z,5.07
2023-02-19T03:56:55.777Z,4.40
2023-02-19T04:00:05.789Z,4.50
2023-02-19T04:06:58.895Z,4.32
2023-02-19T04:10:07.608Z,5.20
2023-02-19T04:13:20.533Z,4.80
2023-02-19T04:16:26.629Z,4.68
2023-02-19T04:22:51.349Z,4.32
2023-02-19T04:25:57.769Z,4.20
2023-02-19T04:29:08.210Z,4.60
2023-02-19T04:32:15.894Z,4.88
2023-02-19T04:35:18.399Z,4.30
2023-02-19T04:38:22.281Z,4.47
2023-02-19T04:41:23.876Z,4.45
2023-02-19T04:44:32.700Z,5.78
2023-02-19T04:50:49.829Z,4.93
2023-02-19T04:53:51.494Z,4.43
2023-02-19T04:56:52.988Z,4.10
2023-02-19T04:59:54.551Z,4.07
2023-02-19T05:02:58.852Z,4.30
2023-02-19T05:06:09.863Z,3.88
2023-02-19T05:09:13.534Z,4.07
2023-02-19T05:12:15.480Z,3.20
2023-02-19T05:15:19.960Z,3.35
2023-02-19T05:18:21.679Z,3.75
2023-02-19T05:21:28.448Z,4.18
2023-02-19T05:24:55.516Z,4.03
2023-02-19T05:28:31.332Z,4.90
2023-02-19T05:32:00.436Z,5.20
2023-02-19T05:35:02.273Z,4.82
2023-02-19T05:38:08.243Z,3.85
2023-02-19T05:41:18.772Z,3.53
2023-02-19T05:44:22.855Z,3.50
2023-02-19T05:47:30.525Z,3.47
2023-02-19T05:50:34.466Z,3.03
2023-02-19T05:53:50.683Z,3.58
2023-02-19T05:56:52.302Z,3.57
2023-02-19T06:03:19.591Z,2.22
2023-02-19T06:06:21.662Z,2.42
2023-02-19T06:09:23.580Z,2.50
2023-02-19T06:12:25.285Z,1.60
2023-02-19T06:15:26.770Z,2.50
2023-02-19T06:18:28.312Z,3.58
2023-02-19T06:21:29.916Z,2.05
2023-02-19T06:24:40.313Z,2.75
2023-02-19T06:27:41.858Z,3.08
2023-02-19T06:30:46.500Z,2.80
2023-02-19T06:33:48.360Z,2.25
2023-02-19T06:36:50.229Z,2.83
2023-02-19T06:39:52.626Z,2.40
2023-02-19T06:42:54.214Z,2.05
2023-02-19T06:45:58.962Z,3.30
2023-02-19T06:49:04.990Z,2.85
2023-02-19T06:52:14.737Z,2.05
2023-02-19T06:55:16.383Z,2.03
2023-02-19T06:58:18.595Z,2.45
2023-02-19T07:01:24.063Z,2.35
2023-02-19T07:04:25.699Z,2.97
2023-02-19T07:07:27.296Z,2.58
2023-02-19T07:10:30.756Z,2.53
2023-02-19T07:13:38.241Z,2.65
2023-02-19T07:16:40.811Z,2.15
2023-02-19T07:19:51.755Z,2.75
2023-02-19T07:22:53.395Z,2.83
2023-02-19T07:25:54.902Z,3.53
2023-02-19T07:28:58.603Z,4.00
2023-02-19T07:32:18.676Z,3.63
2023-02-19T07:35:20.642Z,3.90
2023-02-19T07:38:26.575Z,3.63
2023-02-19T07:41:36.855Z,3.28
2023-02-19T07:44:38.384Z,3.15
2023-02-19T07:47:41.686Z,3.40
2023-02-19T07:50:53.901Z,3.25
2023-02-19T07:53:55.475Z,3.40
2023-02-19T07:57:03.354Z,2.33
2023-02-19T08:00:06.154Z,2.60
2023-02-19T08:03:19.510Z,2.92
2023-02-19T08:06:28.243Z,3.25
2023-02-19T08:09:33.698Z,3.88
2023-02-19T08:12:55.443Z,3.92
2023-02-19T08:16:21.762Z,4.45
2023-02-19T08:19:28.348Z,4.47
2023-02-19T08:22:32.795Z,4.00
2023-02-19T08:25:35.254Z,3.13
2023-02-19T08:28:36.979Z,2.92
2023-02-19T08:31:38.893Z,2.42
2023-02-19T08:34:48.140Z,2.63
2023-02-19T08:38:02.232Z,3.45
2023-02-19T08:41:10.447Z,3.20
2023-02-19T08:44:12.178Z,3.75
2023-02-19T08:47:13.690Z,3.00
2023-02-19T08:50:15.228Z,3.10
2023-02-19T08:53:20.727Z,3.10
2023-02-19T08:56:24.976Z,2.63
2023-02-19T08:59:29.242Z,3.67
2023-02-19T09:02:31.355Z,4.78
2023-02-19T09:05:40.305Z,4.20
2023-02-19T09:08:47.917Z,3.40
2023-02-19T09:11:55.541Z,3.90
2023-02-19T09:15:00.811Z,4.13
2023-02-19T09:18:09.823Z,3.92
2023-02-19T09:21:18.738Z,4.18
2023-02-19T09:24:22.828Z,4.28
2023-02-19T09:27:27.905Z,4.70
2023-02-19T09:30:32.659Z,3.95
2023-02-19T09:33:34.302Z,4.03
2023-02-19T09:36:42.127Z,4.40
2023-02-19T09:39:43.629Z,4.50
2023-02-19T09:42:47.522Z,4.25
2023-02-19T09:45:57.025Z,4.13
2023-02-19T09:49:21.192Z,4.20
2023-02-19T09:52:50.527Z,4.30
2023-02-19T09:55:53.425Z,4.05
2023-02-19T09:58:57.971Z,4.53
2023-02-19T10:02:16.831Z,4.70
2023-02-19T10:05:34.486Z,4.50
2023-02-19T10:08:37.947Z,4.88
2023-02-19T10:11:47.638Z,4.88
2023-02-19T10:14:52.865Z,4.90
2023-02-19T10:17:54.691Z,4.60
2023-02-19T10:21:28.049Z,4.40
2023-02-19T10:24:39.490Z,4.70
2023-02-19T10:27:42.743Z,4.90
2023-02-19T10:30:53.177Z,4.68
2023-02-19T10:33:59.577Z,5.05
2023-02-19T10:37:06.843Z,5.13
2023-02-19T10:40:46.127Z,4.80
2023-02-19T10:43:53.345Z,4.70
2023-02-19T10:46:59.183Z,4.70
2023-02-19T10:50:04.013Z,4.57
2023-02-19T10:53:23.414Z,5.78
2023-02-19T10:56:31.240Z,5.07
2023-02-19T10:59:32.908Z,5.93
2023-02-19T11:02:46.897Z,5.28
2023-02-19T11:05:59.345Z,6.05
2023-02-19T11:09:03.560Z,5.82
2023-02-19T11:12:10.555Z,5.85
2023-02-19T11:15:27.401Z,5.20
2023-02-19T11:18:35.242Z,6.70
2023-02-19T11:21:49.546Z,5.80
2023-02-19T11:24:55.880Z,4.85
2023-02-19T11:28:20.655Z,5.10
2023-02-19T11:31:32.096Z,4.68
2023-02-19T11:34:35.057Z,4.45
2023-02-19T11:37:36.658Z,4.68
2023-02-19T11:40:45.605Z,4.13
2023-02-19T11:44:01.093Z,5.07
2023-02-19T11:47:41.335Z,6.03
2023-02-19T11:50:55.175Z,5.05
2023-02-19T11:58:29.724Z,5.00
2023-02-19T12:02:23.118Z,4.20
2023-02-19T12:05:47.503Z,4.03
2023-02-19T12:09:14.876Z,4.97
2023-02-19T12:15:41.325Z,7.30
2023-02-19T12:19:16.887Z,5.95
2023-02-19T12:22:41.767Z,4.20
2023-02-19T12:25:49.576Z,4.93
2023-02-19T12:29:11.936Z,4.47
2023-02-19T12:32:43.044Z,4.78
2023-02-19T12:36:12.454Z,4.80
2023-02-19T12:39:53.623Z,4.57
2023-02-19T12:43:32.287Z,4.85
2023-02-19T12:46:40.147Z,5.18
2023-02-19T12:49:50.291Z,4.78
2023-02-19T12:52:58.308Z,5.50
2023-02-19T12:56:09.383Z,5.70
2023-02-19T12:59:39.593Z,5.00
2023-02-19T13:02:56.374Z,5.05
2023-02-19T13:06:09.175Z,4.88
2023-02-19T13:09:55.234Z,5.10
2023-02-19T13:13:02.217Z,4.80
2023-02-19T13:16:18.486Z,4.60
2023-02-19T13:19:20.378Z,4.50
2023-02-19T13:23:19.896Z,5.40
2023-02-19T13:27:04.736Z,5.40
2023-02-19T13:30:34.359Z,5.32
2023-02-19T13:34:10.174Z,5.15
2023-02-19T13:37:12.379Z,5.28
2023-02-19T13:40:35.732Z,4.75
2023-02-19T13:44:04.730Z,4.43
2023-02-19T13:47:46.954Z,5.63
2023-02-19T13:50:51.866Z,5.47
2023-02-19T13:54:14.872Z,4.32
2023-02-19T13:57:22.582Z,4.57
2023-02-19T14:00:50.567Z,4.97
2023-02-19T14:04:21.360Z,5.18
2023-02-19T14:07:38.142Z,5.50
2023-02-19T14:10:55.196Z,5.00
2023-02-19T14:14:01.649Z,4.43
2023-02-19T14:20:45.068Z,4.70
2023-02-19T14:23:55.932Z,4.60
2023-02-19T14:27:00.770Z,5.47
2023-02-19T14:30:04.030Z,4.65
2023-02-19T14:33:11.382Z,4.88
2023-02-19T14:36:32.142Z,5.50
2023-02-19T14:39:40.289Z,4.35
2023-02-19T14:42:42.357Z,6.43
2023-02-19T14:46:26.839Z,5.47
2023-02-19T14:49:42.510Z,5.63
2023-02-19T14:52:53.549Z,4.40
2023-02-19T14:55:56.716Z,5.15
2023-02-19T14:59:13.528Z,5.93
2023-02-19T15:02:21.097Z,6.45
2023-02-19T15:05:47.382Z,5.55
2023-02-19T15:09:00.202Z,6.13
2023-02-19T15:12:02.933Z,7.10
2023-02-19T15:15:06.941Z,5.43
2023-02-19T15:18:23.853Z,4.88
2023-02-19T15:24:33.719Z,5.88
2023-02-19T15:27:35.489Z,5.43
2023-02-19T15:30:37.086Z,4.60
2023-02-19T15:33:40.820Z,5.40
2023-02-19T15:36:42.618Z,7.78
2023-02-19T15:39:47.234Z,5.95
2023-02-19T15:42:48.935Z,7.03
2023-02-19T15:45:54.817Z,11.88
2023-02-19T15:49:04.155Z,7.75
2023-02-19T15:52:19.421Z,21.25
2023-02-19T15:55:44.616Z,7.45
2023-02-19T15:58:55.162Z,5.82
2023-02-19T16:02:06.865Z,5.95
2023-02-19T16:05:15.546Z,5.97
2023-02-19T16:08:45.199Z,6.38
2023-02-19T16:11:54.200Z,5.25
2023-02-19T16:14:58.554Z,5.53
2023-02-19T16:18:00.687Z,5.75
2023-02-19T16:21:10.124Z,5.43
2023-02-19T16:24:16.912Z,5.60
2023-02-19T16:30:34.092Z,6.40
2023-02-19T16:33:48.863Z,9.27
2023-02-19T16:36:50.540Z,8.48
2023-02-19T16:40:27.885Z,8.88
2023-02-19T16:43:42.203Z,8.15
2023-02-19T16:46:54.801Z,7.60
2023-02-19T16:49:59.155Z,7.63
2023-02-19T16:53:07.853Z,7.80
2023-02-19T16:56:15.391Z,7.82
2023-02-19T16:59:16.951Z,8.77
2023-02-19T17:02:22.302Z,8.05
2023-02-19T17:05:27.489Z,8.07
2023-02-19T17:08:38.082Z,7.88
2023-02-19T17:11:39.760Z,7.57
2023-02-19T17:14:48.994Z,7.40
2023-02-19T17:17:52.834Z,10.70
2023-02-19T17:21:27.300Z,14.07
2023-02-19T17:24:30.988Z,6.85
2023-02-19T17:27:33.416Z,26.48
2023-02-19T17:30:50.055Z,23.40
2023-02-19T17:33:52.084Z,17.48
2023-02-19T17:37:05.990Z,10.40
2023-02-19T17:40:33.398Z,14.70
2023-02-19T17:43:41.502Z,13.88
2023-02-19T17:46:48.909Z,15.77
2023-02-19T17:49:50.738Z,10.68
2023-02-19T17:52:52.567Z,8.02
2023-02-19T17:55:57.247Z,9.18
2023-02-19T17:58:59.645Z,7.18
2023-02-19T18:02:06.533Z,8.30
2023-02-19T18:05:12.010Z,7.63
2023-02-19T18:08:16.838Z,7.63
2023-02-19T18:11:19.376Z,8.05
2023-02-19T18:14:31.184Z,8.27
2023-02-19T18:17:35.348Z,7.30
2023-02-19T18:27:10.761Z,7.53
2023-02-19T18:30:16.675Z,8.60
2023-02-19T18:33:18.419Z,8.48
2023-02-19T18:36:19.995Z,7.18
2023-02-19T18:39:22.659Z,7.45
2023-02-19T18:42:38.541Z,8.18
2023-02-19T18:48:57.955Z,10.32
2023-02-19T18:52:03.868Z,10.40
2023-02-19T18:55:05.735Z,7.95
2023-02-19T18:58:07.623Z,10.30
2023-02-19T19:01:11.797Z,7.32
2023-02-19T19:04:17.843Z,7.70
2023-02-19T19:07:20.115Z,6.22
2023-02-19T19:10:25.426Z,6.75
2023-02-19T19:13:41.513Z,7.15
2023-02-19T19:16:44.408Z,6.87
2023-02-19T19:19:45.913Z,10.25
2023-02-19T19:22:53.975Z,11.43
2023-02-19T19:26:05.985Z,10.27
2023-02-19T19:29:16.902Z,11.18
2023-02-19T19:32:21.650Z,11.02
2023-02-19T19:35:25.637Z,10.25
2023-02-19T19:41:43.612Z,7.32
2023-02-19T19:44:50.312Z,7.45
2023-02-19T19:47:52.892Z,7.72
2023-02-19T19:50:58.754Z,9.88
2023-02-19T19:54:03.178Z,6.55
2023-02-19T19:57:07.290Z,7.07
2023-02-19T20:00:13.733Z,7.10
2023-02-19T20:03:15.290Z,6.68
2023-02-19T20:06:37.169Z,6.18
2023-02-19T20:09:41.017Z,7.18
2023-02-19T20:16:06.225Z,8.33
2023-02-19T20:19:11.729Z,8.55
2023-02-19T20:22:19.581Z,7.53
2023-02-19T20:25:22.494Z,8.57
2023-02-19T20:28:27.079Z,6.93
2023-02-19T20:31:35.972Z,7.35
2023-02-19T20:34:38.278Z,8.30
2023-02-19T20:37:40.726Z,10.07
2023-02-19T20:40:49.617Z,8.25
2023-02-19T20:43:51.217Z,10.15
2023-02-19T20:46:57.104Z,10.10
2023-02-19T20:50:01.080Z,12.18
2023-02-19T20:53:10.014Z,12.18
2023-02-19T20:56:12.314Z,12.18
2023-02-19T20:59:22.750Z,11.93
2023-02-19T21:02:29.248Z,9.57
2023-02-19T21:08:35.446Z,9.10
2023-02-19T21:11:37.005Z,8.95
2023-02-19T21:14:39.512Z,10.13
2023-02-19T21:17:46.137Z,9.13
2023-02-19T21:23:50.422Z,5.10
2023-02-19T21:26:51.898Z,7.47
2023-02-19T21:29:53.566Z,5.97
2023-02-19T21:32:55.244Z,6.68
2023-02-19T21:35:57.599Z,5.90
2023-02-19T21:42:17.647Z,6.53
2023-02-19T21:45:19.214Z,5.47
2023-02-19T21:48:23.881Z,6.03
2023-02-19T21:51:55.198Z,8.73
2023-02-19T21:54:59.644Z,6.72
2023-02-19T21:58:01.233Z,6.22
2023-02-19T22:04:37.481Z,7.18
2023-02-19T22:07:42.842Z,7.15
2023-02-19T22:10:47.347Z,6.25
2023-02-19T22:13:50.342Z,6.90
2023-02-19T22:16:54.694Z,5.97
2023-02-19T22:23:18.258Z,6.35
2023-02-19T22:26:26.198Z,6.32
2023-02-19T22:29:27.830Z,7.32
2023-02-19T22:32:31.989Z,5.93
2023-02-19T22:35:33.653Z,6.55
2023-02-19T22:43:22.798Z,6.30
2023-02-19T22:46:26.926Z,7.13
2023-02-19T22:49:28.412Z,7.03
2023-02-19T22:52:29.954Z,6.93
2023-02-19T22:55:31.914Z,6.65
2023-02-19T22:58:33.392Z,6.57
2023-02-19T23:01:34.903Z,7.88
2023-02-19T23:04:36.515Z,5.72
2023-02-19T23:07:38.070Z,5.75
2023-02-19T23:10:40.920Z,6.55
2023-02-19T23:13:42.527Z,6.65
2023-02-19T23:16:44.104Z,6.55
2023-02-19T23:19:45.631Z,7.50
2023-02-19T23:22:47.266Z,6.88
2023-02-19T23:25:48.765Z,5.20
2023-02-19T23:28:50.664Z,6.63
2023-02-19T23:31:52.670Z,6.35
2023-02-19T23:34:54.297Z,5.82
2023-02-19T23:37:55.900Z,5.68
2023-02-19T23:40:57.549Z,5.80
2023-02-19T23:43:59.032Z,5.32
2023-02-19T23:47:00.546Z,5.85
2023-02-19T23:50:02.061Z,5.53
2023-02-19T23:53:04.107Z,6.22
2023-02-19T23:56:06.530Z,5.20
2023-02-19T23:59:15.295Z,5.90
